createdAt,value
2019-02-27T00:00:44.599Z,72.43
2019-02-27T00:01:42.800Z,72.14
2019-02-27T00:02:43.606Z,72.14
2019-02-27T00:03:42.634Z,72.27
2019-02-27T00:04:43.041Z,72.32
2019-02-27T00:05:44.067Z,72.28
2019-02-27T00:06:48.604Z,72.18
2019-02-27T00:07:42.957Z,71.58
2019-02-27T00:08:42.655Z,71.43
2019-02-27T00:09:42.778Z,71.56
2019-02-27T00:10:44.481Z,70.97
2019-02-27T00:11:47.002Z,71.1
2019-02-27T00:12:43.216Z,70.88
2019-02-27T00:13:42.663Z,71.84
2019-02-27T00:14:43.619Z,71.41
2019-02-27T00:15:43.005Z,72.43
2019-02-27T00:16:45.426Z,72.66
2019-02-27T00:17:43.122Z,73.55
2019-02-27T00:18:42.643Z,72.62
2019-02-27T00:19:44.494Z,72.38
2019-02-27T00:20:43.045Z,73.56
2019-02-27T00:21:44.459Z,72.45
2019-02-27T00:22:42.640Z,72.41
2019-02-27T00:23:42.677Z,72.6
2019-02-27T00:24:42.752Z,73.77
2019-02-27T00:25:43.079Z,73.72
2019-02-27T00:26:43.259Z,73.31
2019-02-27T00:27:49.902Z,73.4
2019-02-27T00:28:42.805Z,73.94
2019-02-27T00:29:43.210Z,74.04
2019-02-27T00:30:42.632Z,73.76
2019-02-27T00:31:46.329Z,73.73
2019-02-27T00:32:43.023Z,73.14
2019-02-27T00:33:42.830Z,73.21
2019-02-27T00:34:44.459Z,72.4
2019-02-27T00:35:42.639Z,73
2019-02-27T00:36:45.823Z,72.73
2019-02-27T00:37:42.854Z,72.88
2019-02-27T00:38:42.792Z,72.86
2019-02-27T00:39:42.856Z,73.14
2019-02-27T00:40:42.616Z,72.74
2019-02-27T00:41:46.785Z,72.72
2019-02-27T00:42:42.655Z,72.85
2019-02-27T00:43:42.613Z,72.85
2019-02-27T00:44:42.596Z,72.62
2019-02-27T00:45:43.457Z,72.68
2019-02-27T00:46:47.139Z,72.54
2019-02-27T00:47:42.971Z,72.98
2019-02-27T00:48:44.136Z,72.9
2019-02-27T00:49:44.436Z,73.25
2019-02-27T00:50:42.694Z,73.33
2019-02-27T00:51:45.584Z,73.33
2019-02-27T00:52:42.610Z,73.55
2019-02-27T00:53:42.636Z,73.54
2019-02-27T00:54:42.949Z,73.56
2019-02-27T00:55:42.544Z,73.86
2019-02-27T00:56:45.809Z,74
2019-02-27T00:57:42.670Z,73.61
2019-02-27T00:58:43.091Z,73.87
2019-02-27T00:59:42.996Z,74.55
2019-02-27T01:00:43.075Z,74.88
2019-02-27T01:01:48.154Z,75.23
2019-02-27T01:02:42.812Z,75.08
2019-02-27T01:03:43.122Z,74.94
2019-02-27T01:04:42.766Z,74.93
2019-02-27T01:05:43.263Z,74.92
2019-02-27T01:06:48.221Z,74.84
2019-02-27T01:07:42.641Z,74.72
2019-02-27T01:08:42.868Z,74.39
2019-02-27T01:09:42.657Z,74.39
2019-02-27T01:10:46.040Z,74.49
2019-02-27T01:11:42.388Z,74.52
2019-02-27T01:12:42.972Z,74.6
2019-02-27T01:13:42.579Z,74.27
2019-02-27T01:14:43.415Z,73.63
2019-02-27T01:15:44.932Z,73.3
2019-02-27T01:16:42.905Z,74.11
2019-02-27T01:17:42.577Z,74.09
2019-02-27T01:18:43.022Z,74.18
2019-02-27T01:19:43.251Z,74
2019-02-27T01:20:46.753Z,74.07
2019-02-27T01:21:42.718Z,73.91
2019-02-27T01:22:42.592Z,73.8
2019-02-27T01:23:44.877Z,74.03
2019-02-27T01:24:42.685Z,74.32
2019-02-27T01:25:42.770Z,74.67
2019-02-27T01:26:42.570Z,74.6
2019-02-27T01:27:42.500Z,74.56
2019-02-27T01:28:45.773Z,74.59
2019-02-27T01:29:42.873Z,74.87
2019-02-27T01:30:43.053Z,74.95
2019-02-27T01:31:42.688Z,74.37
2019-02-27T01:32:44.364Z,74.4
2019-02-27T01:33:43.442Z,74.54
2019-02-27T01:34:45.181Z,74.87
2019-02-27T01:35:42.639Z,74.77
2019-02-27T01:36:42.914Z,74.56
2019-02-27T01:37:42.942Z,74.83
2019-02-27T01:38:42.677Z,74.44
2019-02-27T01:39:44.873Z,74.2
2019-02-27T01:40:44.358Z,73.98
2019-02-27T01:41:42.661Z,74.19
2019-02-27T01:42:44.355Z,74
2019-02-27T01:43:42.501Z,73.57
2019-02-27T01:44:47.333Z,74.57
2019-02-27T01:45:42.558Z,74.69
2019-02-27T01:46:42.481Z,74.65
2019-02-27T01:47:42.590Z,74.52
2019-02-27T01:48:43.959Z,74.87
2019-02-27T01:49:44.346Z,75.19
2019-02-27T01:50:42.686Z,75.58
2019-02-27T01:51:43.019Z,75.92
2019-02-27T01:52:42.728Z,75.91
2019-02-27T01:53:42.566Z,76.71
2019-02-27T01:54:49.644Z,76.75
2019-02-27T01:55:43.805Z,76.44
2019-02-27T01:56:42.849Z,75.99
2019-02-27T01:57:42.607Z,75.76
2019-02-27T01:58:44.508Z,76.11
2019-02-27T01:59:44.354Z,75.82
2019-02-27T02:00:42.781Z,75.05
2019-02-27T02:01:42.888Z,75.27
2019-02-27T02:02:42.538Z,75.43
2019-02-27T02:03:42.502Z,75.45
2019-02-27T02:04:42.584Z,75.43
2019-02-27T02:05:44.390Z,75.08
2019-02-27T02:06:42.925Z,74.64
2019-02-27T02:07:42.635Z,74.94
2019-02-27T02:08:47.919Z,74.91
2019-02-27T02:09:42.584Z,74.38
2019-02-27T02:10:42.560Z,74.4
2019-02-27T02:11:42.525Z,74.66
2019-02-27T02:12:42.676Z,73.91
2019-02-27T02:13:42.587Z,74.64
2019-02-27T02:14:42.872Z,74.84
2019-02-27T02:15:43.406Z,74.54
2019-02-27T02:16:43.193Z,74.77
2019-02-27T02:17:43.621Z,74.8
2019-02-27T02:18:48.913Z,74.94
2019-02-27T02:19:42.457Z,74.67
2019-02-27T02:20:42.701Z,74.96
2019-02-27T02:21:42.824Z,75.24
2019-02-27T02:22:42.834Z,75.16
2019-02-27T02:23:48.558Z,75.07
2019-02-27T02:24:42.525Z,75.17
2019-02-27T02:25:42.740Z,75.19
2019-02-27T02:26:42.835Z,75.17
2019-02-27T02:27:42.664Z,75.2
2019-02-27T02:28:42.432Z,75.1
2019-02-27T02:29:42.492Z,75.05
2019-02-27T02:30:44.304Z,75.06
2019-02-27T02:31:42.760Z,75.64
2019-02-27T02:32:42.473Z,75.73
2019-02-27T02:33:42.683Z,76.22
2019-02-27T02:34:42.555Z,76.3
2019-02-27T02:35:42.412Z,76.85
2019-02-27T02:36:42.534Z,76.88
2019-02-27T02:37:42.728Z,77.17
2019-02-27T02:38:43.432Z,77.14
2019-02-27T02:39:42.399Z,77.18
2019-02-27T02:40:42.510Z,77.5
2019-02-27T02:41:48.499Z,77.72
2019-02-27T02:42:42.745Z,77.67
2019-02-27T02:43:42.473Z,77.56
2019-02-27T02:44:44.456Z,77.39
2019-02-27T02:45:42.707Z,77.49
2019-02-27T02:46:46.523Z,77.1
2019-02-27T02:47:43.013Z,77.1
2019-02-27T02:48:43.009Z,77.06
2019-02-27T02:49:44.122Z,77.19
2019-02-27T02:50:42.909Z,77.43
2019-02-27T02:51:42.419Z,77.41
2019-02-27T02:52:42.398Z,77.32
2019-02-27T02:53:42.503Z,77.94
2019-02-27T02:54:42.371Z,78.04
2019-02-27T02:55:49.460Z,78.1
2019-02-27T02:56:42.601Z,78.09
2019-02-27T02:57:42.417Z,78.08
2019-02-27T02:58:49.041Z,78.21
2019-02-27T02:59:42.661Z,77.88
2019-02-27T03:00:43.176Z,77.49
2019-02-27T03:01:50.291Z,77.28
2019-02-27T03:02:44.261Z,77.18
2019-02-27T03:03:42.712Z,76.95
2019-02-27T03:04:49.477Z,77.04
2019-02-27T03:05:42.397Z,76.94
2019-02-27T03:06:42.490Z,76.47
2019-02-27T03:07:45.819Z,76.43
2019-02-27T03:08:42.730Z,76.31
2019-02-27T03:09:42.632Z,76.04
2019-02-27T03:10:43.952Z,76.03
2019-02-27T03:11:42.476Z,76.03
2019-02-27T03:12:42.379Z,75.91
2019-02-27T03:13:42.920Z,76.35
2019-02-27T03:14:42.379Z,76.49
2019-02-27T03:15:44.251Z,76.47
2019-02-27T03:16:42.606Z,76.26
2019-02-27T03:17:42.497Z,76.37
2019-02-27T03:18:42.500Z,76.27
2019-02-27T03:19:43.004Z,76.46
2019-02-27T03:20:42.434Z,76.48
2019-02-27T03:21:42.746Z,76.54
2019-02-27T03:22:42.454Z,76.55
2019-02-27T03:23:42.939Z,76.63
2019-02-27T03:24:42.398Z,76.65
2019-02-27T03:25:42.539Z,76.89
2019-02-27T03:26:42.336Z,76.81
2019-02-27T03:27:42.380Z,76.77
2019-02-27T03:28:42.555Z,76.63
2019-02-27T03:29:43.228Z,76.26
2019-02-27T03:30:42.405Z,76.06
2019-02-27T03:31:42.594Z,75.49
2019-02-27T03:32:44.166Z,75.75
2019-02-27T03:33:42.180Z,75.56
2019-02-27T03:34:51.789Z,75.35
2019-02-27T03:35:42.621Z,75.23
2019-02-27T03:36:42.596Z,75.91
2019-02-27T03:37:49.578Z,75.95
2019-02-27T03:38:42.419Z,75.31
2019-02-27T03:39:42.369Z,75.37
2019-02-27T03:40:48.962Z,75.79
2019-02-27T03:41:42.336Z,75.86
2019-02-27T03:42:42.446Z,75.93
2019-02-27T03:43:46.932Z,76.09
2019-02-27T03:44:44.215Z,75.92
2019-02-27T03:45:42.590Z,75.82
2019-02-27T03:46:42.876Z,75.97
2019-02-27T03:47:42.432Z,75.88
2019-02-27T03:48:42.139Z,75.6
2019-02-27T03:49:42.843Z,75.86
2019-02-27T03:50:51.056Z,75.97
2019-02-27T03:51:43.097Z,76.04
2019-02-27T03:52:42.483Z,76.15
2019-02-27T03:53:47.290Z,76.13
2019-02-27T03:54:42.395Z,75.74
2019-02-27T03:55:42.642Z,76.27
2019-02-27T03:56:45.013Z,76.17
2019-02-27T03:57:42.318Z,76.05
2019-02-27T03:58:42.399Z,76.11
2019-02-27T03:59:44.059Z,76.08
2019-02-27T04:00:42.498Z,75.86
2019-02-27T04:01:42.429Z,75.54
2019-02-27T04:02:43.069Z,76
2019-02-27T04:03:42.342Z,75.92
2019-02-27T04:04:42.393Z,75.89
2019-02-27T04:05:46.473Z,75.54
2019-02-27T04:06:42.325Z,75.33
2019-02-27T04:07:44.223Z,75.05
2019-02-27T04:08:45.320Z,74.9
2019-02-27T04:09:42.393Z,74.79
2019-02-27T04:10:42.475Z,74.56
2019-02-27T04:11:43.002Z,74.46
2019-02-27T04:12:42.950Z,75.42
2019-02-27T04:13:42.406Z,75.85
2019-02-27T04:14:42.457Z,75.66
2019-02-27T04:15:42.384Z,75.34
2019-02-27T04:16:42.313Z,75.65
2019-02-27T04:17:42.408Z,75.26
2019-02-27T04:18:42.374Z,75.1
2019-02-27T04:19:42.808Z,75.84
2019-02-27T04:20:42.485Z,76.43
2019-02-27T04:21:42.455Z,76.34
2019-02-27T04:22:42.574Z,76.31
2019-02-27T04:23:49.389Z,75.99
2019-02-27T04:24:42.295Z,75.97
2019-02-27T04:25:42.265Z,75.66
2019-02-27T04:26:43.251Z,76.3
2019-02-27T04:27:42.464Z,76.62
2019-02-27T04:28:42.266Z,76.26
2019-02-27T04:29:42.740Z,75.65
2019-02-27T04:30:42.750Z,76.69
2019-02-27T04:31:42.355Z,76.19
2019-02-27T04:32:49.053Z,75.76
2019-02-27T04:33:42.386Z,75.34
2019-02-27T04:34:43.276Z,75.13
2019-02-27T04:35:42.301Z,75.07
2019-02-27T04:36:47.950Z,75.89
2019-02-27T04:37:42.470Z,76.26
2019-02-27T04:38:42.382Z,76.35
2019-02-27T04:39:42.262Z,76.01
2019-02-27T04:40:44.889Z,75.81
2019-02-27T04:41:42.385Z,76.41
2019-02-27T04:42:42.298Z,76.61
2019-02-27T04:43:44.143Z,76.44
2019-02-27T04:44:44.104Z,76.47
2019-02-27T04:45:47.669Z,76.64
2019-02-27T04:46:42.376Z,76.08
2019-02-27T04:47:42.402Z,76.18
2019-02-27T04:48:42.320Z,75.67
2019-02-27T04:49:42.484Z,75.95
2019-02-27T04:50:44.961Z,75.85
2019-02-27T04:51:43.394Z,76.37
2019-02-27T04:52:42.792Z,76.55
2019-02-27T04:53:42.704Z,76.69
2019-02-27T04:54:42.334Z,77.2
2019-02-27T04:55:42.192Z,77.53
2019-02-27T04:56:42.237Z,77.59
2019-02-27T04:57:42.276Z,77.78
2019-02-27T04:58:43.820Z,78.08
2019-02-27T04:59:42.332Z,77.68
2019-02-27T05:00:42.468Z,77.51
2019-02-27T05:01:43.173Z,77.63
2019-02-27T05:02:42.236Z,77.65
2019-02-27T05:03:42.250Z,78
2019-02-27T05:04:42.309Z,77.96
2019-02-27T05:05:42.749Z,78.19
2019-02-27T05:06:47.885Z,78.1
2019-02-27T05:07:42.284Z,78.23
2019-02-27T05:08:42.488Z,77.85
2019-02-27T05:09:42.486Z,77.78
2019-02-27T05:10:42.499Z,78.27
2019-02-27T05:11:48.580Z,78.26
2019-02-27T05:12:42.288Z,78.27
2019-02-27T05:13:43.204Z,78.16
2019-02-27T05:14:43.195Z,78.16
2019-02-27T05:15:42.258Z,77.85
2019-02-27T05:16:47.722Z,77.8
2019-02-27T05:17:42.479Z,77.75
2019-02-27T05:18:42.259Z,77.43
2019-02-27T05:19:42.257Z,77.14
2019-02-27T05:20:45.991Z,77.05
2019-02-27T05:21:42.349Z,77.34
2019-02-27T05:22:42.010Z,78.38
2019-02-27T05:23:42.389Z,77.3
2019-02-27T05:24:42.299Z,76.62
2019-02-27T05:25:44.039Z,76.69
2019-02-27T05:26:42.355Z,76.58
2019-02-27T05:27:42.420Z,76.21
2019-02-27T05:28:43.172Z,75.99
2019-02-27T05:29:42.422Z,75.84
2019-02-27T05:30:46.041Z,76.32
2019-02-27T05:31:42.190Z,77.08
2019-02-27T05:32:42.442Z,76.78
2019-02-27T05:33:43.105Z,76.62
2019-02-27T05:34:50.602Z,76.67
2019-02-27T05:35:42.782Z,76.88
2019-02-27T05:36:42.787Z,77.12
2019-02-27T05:37:42.575Z,77.6
2019-02-27T05:38:44.286Z,77.36
2019-02-27T05:39:42.803Z,77.14
2019-02-27T05:40:42.609Z,77.11
2019-02-27T05:41:42.555Z,77.32
2019-02-27T05:42:43.023Z,77.45
2019-02-27T05:43:48.794Z,77.05
2019-02-27T05:44:42.118Z,76.98
2019-02-27T05:45:43.583Z,77.28
2019-02-27T05:46:42.209Z,77.41
2019-02-27T05:47:46.108Z,77.18
2019-02-27T05:48:42.546Z,76.68
2019-02-27T05:49:42.765Z,76.49
2019-02-27T05:50:42.129Z,76.34
2019-02-27T05:51:43.057Z,76.51
2019-02-27T05:52:42.232Z,77.13
2019-02-27T05:53:42.223Z,77.22
2019-02-27T05:54:59.081Z,77.72
2019-02-27T05:55:42.316Z,78.13
2019-02-27T05:56:42.492Z,78.26
2019-02-27T05:57:42.400Z,77.87
2019-02-27T05:58:43.645Z,78.17
2019-02-27T05:59:42.617Z,78.21
2019-02-27T06:00:42.249Z,77.98
2019-02-27T06:01:42.609Z,77.91
2019-02-27T06:02:45.780Z,78.02
2019-02-27T06:03:42.231Z,78.39
2019-02-27T06:04:42.446Z,78.66
2019-02-27T06:05:50.044Z,78.57
2019-02-27T06:06:45.972Z,78.65
2019-02-27T06:07:43.026Z,78.27
2019-02-27T06:08:42.155Z,78.16
2019-02-27T06:09:44.846Z,77.66
2019-02-27T06:10:42.591Z,77.62
2019-02-27T06:11:42.153Z,77.99
2019-02-27T06:12:42.287Z,77.85
2019-02-27T06:13:42.404Z,77.81
2019-02-27T06:14:42.418Z,77.72
2019-02-27T06:15:42.454Z,77.9
2019-02-27T06:16:42.337Z,77.69
2019-02-27T06:17:49.903Z,77.77
2019-02-27T06:18:42.367Z,77.9
2019-02-27T06:19:43.695Z,77.44
2019-02-27T06:20:43.089Z,77.79
2019-02-27T06:21:42.994Z,77.68
2019-02-27T06:22:42.560Z,78.1
2019-02-27T06:23:42.257Z,77.94
2019-02-27T06:24:46.590Z,78.16
2019-02-27T06:25:42.601Z,78.03
2019-02-27T06:26:42.224Z,77.81
2019-02-27T06:27:42.296Z,77.94
2019-02-27T06:28:42.126Z,77.99
2019-02-27T06:29:43.064Z,77.87
2019-02-27T06:30:42.066Z,78.29
2019-02-27T06:31:42.124Z,78.41
2019-02-27T06:32:42.957Z,78.41
2019-02-27T06:33:46.050Z,79.04
2019-02-27T06:34:42.290Z,79.29
2019-02-27T06:35:42.158Z,79.55
2019-02-27T06:36:43.180Z,79.64
2019-02-27T06:37:42.558Z,79.59
2019-02-27T06:38:42.182Z,79.47
2019-02-27T06:39:43.324Z,79.23
2019-02-27T06:40:43.071Z,78.73
2019-02-27T06:41:42.507Z,78.98
2019-02-27T06:42:43.014Z,79.16
2019-02-27T06:43:42.402Z,78.53
2019-02-27T06:44:42.518Z,78.84
2019-02-27T06:45:46.744Z,78.29
2019-02-27T06:46:42.077Z,78.24
2019-02-27T06:47:42.303Z,78.32
2019-02-27T06:48:44.258Z,78.39
2019-02-27T06:49:42.646Z,78.52
2019-02-27T06:50:42.083Z,78.34
2019-02-27T06:51:42.111Z,77.77
2019-02-27T06:52:43.207Z,78.25
2019-02-27T06:53:42.170Z,77.85
2019-02-27T06:54:43.077Z,78.35
2019-02-27T06:55:42.221Z,78.56
2019-02-27T06:56:42.065Z,78.49
2019-02-27T06:57:42.147Z,78.87
2019-02-27T06:58:42.052Z,78.97
2019-02-27T06:59:42.282Z,79.3
2019-02-27T07:00:42.326Z,79.22
2019-02-27T07:01:42.022Z,78.9
2019-02-27T07:02:42.197Z,79.22
2019-02-27T07:03:42.392Z,78.9
2019-02-27T07:04:42.841Z,78.63
2019-02-27T07:05:48.910Z,78.24
2019-02-27T07:06:42.361Z,78.76
2019-02-27T07:07:42.352Z,78.26
2019-02-27T07:08:42.047Z,78.85
2019-02-27T07:09:46.605Z,78.26
2019-02-27T07:10:42.393Z,78.93
2019-02-27T07:11:49.056Z,78.93
2019-02-27T07:12:42.189Z,78.96
2019-02-27T07:13:41.984Z,78.95
2019-02-27T07:14:41.854Z,78.99
2019-02-27T07:15:48.928Z,78.44
2019-02-27T07:16:42.722Z,78.98
2019-02-27T07:17:42.219Z,79.37
2019-02-27T07:18:42.594Z,78.65
2019-02-27T07:19:42.429Z,78.26
2019-02-27T07:20:42.558Z,78.76
2019-02-27T07:21:42.095Z,78.48
2019-02-27T07:22:46.899Z,78.61
2019-02-27T07:23:43.860Z,78.12
2019-02-27T07:24:42.121Z,78.43
2019-02-27T07:25:43.847Z,78.54
2019-02-27T07:26:41.813Z,78.72
2019-02-27T07:27:41.824Z,78.19
2019-02-27T07:28:44.217Z,79.46
2019-02-27T07:29:43.184Z,79.33
2019-02-27T07:30:43.368Z,79.01
2019-02-27T07:31:42.667Z,78.92
2019-02-27T07:32:43.840Z,79.1
2019-02-27T07:33:41.845Z,79.36
2019-02-27T07:34:41.806Z,78.95
2019-02-27T07:35:42.092Z,79.19
2019-02-27T07:36:42.183Z,79.24
2019-02-27T07:37:48.418Z,78.96
2019-02-27T07:38:43.852Z,78.79
2019-02-27T07:39:42.333Z,78.81
2019-02-27T07:40:43.672Z,78.34
2019-02-27T07:41:43.809Z,78.79
2019-02-27T07:42:41.809Z,78.79
2019-02-27T07:43:41.803Z,78.57
2019-02-27T07:44:42.588Z,77.86
2019-02-27T07:45:46.326Z,78.1
2019-02-27T07:46:41.774Z,78.24
2019-02-27T07:47:41.955Z,78.5
2019-02-27T07:48:41.778Z,78.44
2019-02-27T07:49:42.736Z,77.86
2019-02-27T07:50:42.266Z,77.58
2019-02-27T07:51:42.333Z,78.05
2019-02-27T07:52:42.238Z,78.25
2019-02-27T07:53:42.470Z,78
2019-02-27T07:54:42.352Z,78.51
2019-02-27T07:55:42.081Z,78.74
2019-02-27T07:56:42.114Z,78.74
2019-02-27T07:57:42.592Z,78.9
2019-02-27T07:58:42.584Z,78.88
2019-02-27T07:59:42.385Z,78.72
2019-02-27T08:00:43.072Z,78.33
2019-02-27T08:01:44.385Z,78.54
2019-02-27T08:02:42.697Z,78.64
2019-02-27T08:03:46.138Z,78.35
2019-02-27T08:04:43.789Z,77.94
2019-02-27T08:05:41.979Z,77.43
2019-02-27T08:06:42.339Z,77.48
2019-02-27T08:07:42.036Z,77.44
2019-02-27T08:08:42.043Z,77.54
2019-02-27T08:09:42.458Z,77.72
2019-02-27T08:10:42.127Z,78.09
2019-02-27T08:11:48.044Z,77.76
2019-02-27T08:12:42.380Z,77.9
2019-02-27T08:13:42.386Z,78.01
2019-02-27T08:14:42.015Z,77.6
2019-02-27T08:15:42.034Z,77.34
2019-02-27T08:16:42.206Z,77.25
2019-02-27T08:17:42.800Z,77.73
2019-02-27T08:18:42.111Z,77.09
2019-02-27T08:19:46.323Z,77.65
2019-02-27T08:20:42.034Z,77.44
2019-02-27T08:21:42.059Z,76.93
2019-02-27T08:22:42.061Z,77.09
2019-02-27T08:23:42.127Z,76.52
2019-02-27T08:24:42.460Z,75.88
2019-02-27T08:25:42.753Z,76.08
2019-02-27T08:26:42.307Z,76.03
2019-02-27T08:27:44.015Z,76.04
2019-02-27T08:28:42.281Z,76.04
2019-02-27T08:29:42.052Z,75.29
2019-02-27T08:30:42.012Z,75.49
2019-02-27T08:31:42.048Z,75.51
2019-02-27T08:32:42.115Z,75.68
2019-02-27T08:33:42.051Z,75.53
2019-02-27T08:34:42.341Z,75.34
2019-02-27T08:35:42.815Z,75.39
2019-02-27T08:36:43.599Z,75.44
2019-02-27T08:37:42.012Z,74.85
2019-02-27T08:38:42.035Z,74.07
2019-02-27T08:39:42.555Z,73.75
2019-02-27T08:40:42.020Z,74.02
2019-02-27T08:41:42.277Z,73.93
2019-02-27T08:42:41.883Z,72.45
2019-02-27T08:43:42.102Z,72.94
2019-02-27T08:44:46.829Z,72.9
2019-02-27T08:45:42.698Z,72.97
2019-02-27T08:46:41.910Z,72.12
2019-02-27T08:47:44.722Z,72.47
2019-02-27T08:48:42.111Z,72.53
2019-02-27T08:49:42.109Z,71.67
2019-02-27T08:50:41.687Z,71.44
2019-02-27T08:51:42.784Z,68.95
2019-02-27T08:52:41.730Z,68.52
2019-02-27T08:53:41.857Z,67.52
2019-02-27T08:54:42.257Z,66.91
2019-02-27T08:55:42.349Z,67.23
2019-02-27T08:56:48.030Z,67.3
2019-02-27T08:57:42.488Z,67.21
2019-02-27T08:58:42.855Z,66.57
2019-02-27T08:59:42.050Z,66.72
2019-02-27T09:00:41.938Z,66.01
2019-02-27T09:01:42.501Z,66.33
2019-02-27T09:02:42.000Z,66.1
2019-02-27T09:03:42.127Z,66.38
2019-02-27T09:04:46.237Z,66.2
2019-02-27T09:05:42.631Z,66.7
2019-02-27T09:06:42.232Z,66.07
2019-02-27T09:07:43.277Z,66.54
2019-02-27T09:08:44.469Z,66.11
2019-02-27T09:09:42.071Z,66.6
2019-02-27T09:10:41.956Z,66.5
2019-02-27T09:11:42.456Z,66.05
2019-02-27T09:12:41.947Z,65.9
2019-02-27T09:13:42.067Z,66.07
2019-02-27T09:14:41.876Z,65.49
2019-02-27T09:15:43.704Z,65.78
2019-02-27T09:16:42.694Z,66.02
2019-02-27T09:17:42.031Z,66.07
2019-02-27T09:18:44.370Z,65.42
2019-02-27T09:19:46.581Z,64.86
2019-02-27T09:20:42.535Z,64.48
2019-02-27T09:21:41.825Z,64.35
2019-02-27T09:22:41.981Z,63.84
2019-02-27T09:23:42.691Z,63.62
2019-02-27T09:24:42.782Z,64.08
2019-02-27T09:25:42.518Z,64.08
2019-02-27T09:26:42.654Z,64.31
2019-02-27T09:27:42.363Z,63.46
2019-02-27T09:28:45.317Z,62.95
2019-02-27T09:29:42.173Z,62.94
2019-02-27T09:30:41.801Z,62.78
2019-02-27T09:31:51.310Z,63.58
2019-02-27T09:32:46.825Z,63
2019-02-27T09:33:41.859Z,63.4
2019-02-27T09:34:42.645Z,63.3
2019-02-27T09:35:42.128Z,62.63
2019-02-27T09:36:43.969Z,63.33
2019-02-27T09:37:42.538Z,62.93
2019-02-27T09:38:41.943Z,61.98
2019-02-27T09:39:42.684Z,61.04
2019-02-27T09:40:42.068Z,61.81
2019-02-27T09:41:47.203Z,61.47
2019-02-27T09:42:41.653Z,61.51
2019-02-27T09:43:41.625Z,61.01
2019-02-27T09:44:41.638Z,61.21
2019-02-27T09:45:47.246Z,61.12
2019-02-27T09:46:41.614Z,61.48
2019-02-27T09:47:41.643Z,61.16
2019-02-27T09:48:42.103Z,61.26
2019-02-27T09:49:42.000Z,61.27
2019-02-27T09:50:49.245Z,61.27
2019-02-27T09:51:41.760Z,61.1
2019-02-27T09:52:41.831Z,60.56
2019-02-27T09:53:42.130Z,61.81
2019-02-27T09:54:47.718Z,60.58
2019-02-27T09:55:41.761Z,60.27
2019-02-27T09:56:41.818Z,60.74
2019-02-27T09:57:42.168Z,60.34
2019-02-27T09:58:46.392Z,60.3
2019-02-27T09:59:41.810Z,60.42
2019-02-27T10:00:42.021Z,61.19
2019-02-27T10:01:41.602Z,59.67
2019-02-27T10:02:47.090Z,59.67
2019-02-27T10:03:42.701Z,59.62
2019-02-27T10:04:41.785Z,59.68
2019-02-27T10:05:43.608Z,59.6
2019-02-27T10:06:43.686Z,59.74
2019-02-27T10:07:41.736Z,59.85
2019-02-27T10:08:41.922Z,59.01
2019-02-27T10:09:41.962Z,59.34
2019-02-27T10:10:46.208Z,58.51
2019-02-27T10:11:41.750Z,57.98
2019-02-27T10:12:42.513Z,57.6
2019-02-27T10:13:42.068Z,57.88
2019-02-27T10:14:42.710Z,57.32
2019-02-27T10:15:42.080Z,57.4
2019-02-27T10:16:41.758Z,57.61
2019-02-27T10:17:44.368Z,57
2019-02-27T10:18:42.104Z,57.66
2019-02-27T10:19:41.997Z,58.61
2019-02-27T10:20:43.615Z,58.39
2019-02-27T10:21:47.670Z,58.15
2019-02-27T10:22:42.024Z,58.24
2019-02-27T10:23:41.774Z,57.45
2019-02-27T10:24:43.584Z,58.05
2019-02-27T10:25:44.292Z,58.17
2019-02-27T10:26:42.155Z,58.38
2019-02-27T10:27:42.066Z,58.31
2019-02-27T10:28:44.198Z,57.66
2019-02-27T10:29:41.831Z,58.38
2019-02-27T10:30:41.765Z,56.68
2019-02-27T10:31:42.171Z,57.28
2019-02-27T10:32:42.178Z,57.54
2019-02-27T10:33:43.882Z,57.63
2019-02-27T10:34:42.099Z,56.75
2019-02-27T10:35:42.206Z,57.01
2019-02-27T10:36:42.610Z,57.65
2019-02-27T10:37:42.237Z,57.39
2019-02-27T10:38:45.671Z,57.3
2019-02-27T10:39:42.231Z,56.03
2019-02-27T10:40:42.136Z,57.38
2019-02-27T10:41:42.037Z,56.34
2019-02-27T10:42:42.048Z,56.47
2019-02-27T10:43:41.957Z,55.97
2019-02-27T10:44:43.551Z,55.85
2019-02-27T10:45:42.474Z,55.29
2019-02-27T10:46:41.717Z,55.27
2019-02-27T10:47:42.909Z,54.65
2019-02-27T10:48:43.567Z,54.91
2019-02-27T10:49:41.727Z,54.72
2019-02-27T10:50:41.778Z,55.16
2019-02-27T10:51:44.493Z,54.48
2019-02-27T10:52:41.764Z,54.42
2019-02-27T10:53:42.574Z,54.49
2019-02-27T10:54:41.803Z,54.6
2019-02-27T10:55:42.294Z,54.61
2019-02-27T10:56:42.551Z,53.63
2019-02-27T10:57:41.734Z,53.49
2019-02-27T10:58:41.696Z,55.17
2019-02-27T10:59:41.813Z,54.8
2019-02-27T11:00:42.698Z,55
2019-02-27T11:01:41.774Z,53.69
2019-02-27T11:02:41.783Z,53.63
2019-02-27T11:03:43.519Z,53.01
2019-02-27T11:04:43.057Z,52.81
2019-02-27T11:05:42.002Z,52.69
2019-02-27T11:06:41.780Z,52.37
2019-02-27T11:07:41.775Z,53.78
2019-02-27T11:08:41.668Z,53.21
2019-02-27T11:09:43.066Z,52.39
2019-02-27T11:10:42.245Z,51.53
2019-02-27T11:11:42.347Z,52.21
2019-02-27T11:12:42.056Z,51.85
2019-02-27T11:13:41.987Z,52.07
2019-02-27T11:14:41.743Z,51.56
2019-02-27T11:15:45.871Z,51.96
2019-02-27T11:16:42.084Z,51.5
2019-02-27T11:17:41.712Z,51.93
2019-02-27T11:18:42.965Z,50.96
2019-02-27T11:19:43.124Z,50.56
2019-02-27T11:20:42.202Z,51.06
2019-02-27T11:21:41.709Z,51.29
2019-02-27T11:22:42.022Z,51.8
2019-02-27T11:23:41.975Z,52.3
2019-02-27T11:24:42.129Z,52.37
2019-02-27T11:25:41.941Z,51.05
2019-02-27T11:26:41.779Z,51.28
2019-02-27T11:27:41.703Z,48.94
2019-02-27T11:28:48.441Z,48.41
2019-02-27T11:29:41.693Z,48.41
2019-02-27T11:30:42.680Z,49.01
2019-02-27T11:31:46.309Z,49.35
2019-02-27T11:32:42.565Z,48.59
2019-02-27T11:33:41.791Z,48.88
2019-02-27T11:34:49.280Z,48.62
2019-02-27T11:35:41.798Z,48.68
2019-02-27T11:36:41.996Z,49.16
2019-02-27T11:37:47.812Z,49.18
2019-02-27T11:38:41.724Z,47.7
2019-02-27T11:39:41.608Z,47.75
2019-02-27T11:40:43.071Z,49.32
2019-02-27T11:41:41.957Z,48.06
2019-02-27T11:42:42.070Z,47.14
2019-02-27T11:43:42.077Z,48.36
2019-02-27T11:44:42.452Z,48.05
2019-02-27T11:45:42.190Z,48.24
2019-02-27T11:46:41.794Z,47.71
2019-02-27T11:47:48.333Z,46.19
2019-02-27T11:48:41.988Z,46.15
2019-02-27T11:49:43.510Z,46.35
2019-02-27T11:50:41.666Z,46.38
2019-02-27T11:51:42.001Z,47.01
2019-02-27T11:52:49.418Z,46.45
2019-02-27T11:53:41.883Z,45.05
2019-02-27T11:54:44.006Z,45.91
2019-02-27T11:55:42.430Z,45.93
2019-02-27T11:56:41.758Z,46.74
2019-02-27T11:57:43.423Z,46.09
2019-02-27T11:58:41.794Z,44.35
2019-02-27T11:59:47.596Z,44.76
2019-02-27T12:00:41.970Z,43.07
2019-02-27T12:01:41.641Z,43.18
2019-02-27T12:02:41.759Z,42.96
2019-02-27T12:03:46.628Z,41.43
2019-02-27T12:04:41.863Z,40.82
2019-02-27T12:05:41.666Z,41.78
2019-02-27T12:06:42.367Z,41.55
2019-02-27T12:07:43.443Z,40.82
2019-02-27T12:08:41.714Z,41.86
2019-02-27T12:09:43.048Z,41.87
2019-02-27T12:10:41.666Z,42.46
2019-02-27T12:11:49.524Z,42.59
2019-02-27T12:12:42.400Z,43.22
2019-02-27T12:13:41.701Z,42.99
2019-02-27T12:14:42.072Z,42.96
2019-02-27T12:15:44.442Z,42.54
2019-02-27T12:16:42.707Z,44.03
2019-02-27T12:17:41.587Z,41.84
2019-02-27T12:18:41.888Z,41.09
2019-02-27T12:19:45.503Z,40.72
2019-02-27T12:20:41.806Z,40.03
2019-02-27T12:21:41.638Z,42.22
2019-02-27T12:22:42.109Z,42.27
2019-02-27T12:23:44.971Z,43.98
2019-02-27T12:24:41.671Z,42.73
2019-02-27T12:25:41.829Z,42.56
2019-02-27T12:26:41.652Z,41.49
2019-02-27T12:27:50.170Z,43.6
2019-02-27T12:28:41.675Z,43.22
2019-02-27T12:29:41.973Z,43.12
2019-02-27T12:30:41.687Z,42.3
2019-02-27T12:31:42.269Z,42.78
2019-02-27T12:32:42.176Z,42.74
2019-02-27T12:33:41.628Z,42.51
2019-02-27T12:34:41.766Z,41.54
2019-02-27T12:35:45.162Z,41.53
2019-02-27T12:36:41.585Z,41.32
2019-02-27T12:37:41.675Z,40.84
2019-02-27T12:38:42.691Z,40.9
2019-02-27T12:39:43.719Z,40.89
2019-02-27T12:40:42.053Z,41.99
2019-02-27T12:41:41.553Z,41.81
2019-02-27T12:42:43.324Z,42.51
2019-02-27T12:43:41.744Z,41.86
2019-02-27T12:44:41.611Z,40.72
2019-02-27T12:45:41.633Z,40.28
2019-02-27T12:46:42.176Z,39.5
2019-02-27T12:47:41.797Z,40.15
2019-02-27T12:48:47.230Z,40.02
2019-02-27T12:49:41.824Z,38.68
2019-02-27T12:50:41.357Z,38.93
2019-02-27T12:51:41.655Z,39.34
2019-02-27T12:52:48.307Z,38.39
2019-02-27T12:53:42.677Z,38.74
2019-02-27T12:54:42.109Z,38.95
2019-02-27T12:55:42.375Z,39.26